Latest Weather Observations for Goulburn Airport

IDN60801

Issued at 9:53 am EST Wednesday 22 September 2021 (issued every 10 minutes, with the page automatically refreshed every 10 minutes)

About weather observations | Map of weather stations | Latest weather observations for NSW | Other Formats
Station Details ID: 070330 Name: GOULBURN AIRPORT AWS Lat: -34.81 Lon: 149.73 Height: 640.0 m
Data from the previous 72 hours. | See also: Recent months at Goulburn Airport
Date/Time
EST
Temp
°C
App
Temp
°C
Dew
Point
°C
Rel
Hum
%
Delta-T
°C
Wind Press
QNH
hPa
Press
MSL
hPa
Rain since
9am
mm
Dir  Spd
km/h
Gust
km/h
Spd
kts
Gust
kts
22/09:30am 10.8 7.4 3.8 62 3.2 WSW 11 17 6 9 1024.5 1024.6 0.0
22/09:00am 10.1 6.6 3.4 63 3.0 W 11 15 6 8 1024.4 1024.5 0.0
22/08:30am 8.6 5.1 3.6 71 2.2 WNW 11 15 6 8 1024.3 1024.4 0.0
22/08:00am 6.8 3.8 4.3 84 1.1 WNW 9 15 5 8 1024.1 1024.2 0.0
22/07:30am 3.9 1.2 3.6 98 0.1 NNW 7 11 4 6 1023.9 1024.0 0.0
22/07:00am 1.6 -1.3 1.5 99 0.0 NNW 6 6 3 3 1023.7 1023.8 0.0
22/06:30am -0.7 -3.2 -0.8 99 0.0 N 2 6 1 3 1023.7 1023.8 0.0
22/06:19am -1.3 -3.9 -1.4 99 0.0 N 2 6 1 3 1023.5 1023.5 0.0
22/06:00am -2.0 -4.3 -2.1 99 -0.1 CALM 0 0 0 0 1023.4 1023.4 0.0
22/05:58am -1.8 -4.0 -1.9 99 0.0 CALM 0 0 0 0 1023.4 1023.4 0.0
22/05:30am -2.2 -5.3 -2.5 98 0.0 N 4 6 2 3 1023.0 1023.1 0.0
22/05:00am -1.5 -3.7 -1.6 99 0.0 CALM 0 0 0 0 1022.8 1022.9 0.0
22/04:53am -1.3 -3.5 -1.4 99 0.0 CALM 0 0 0 0 1022.8 1022.9 0.0
22/04:33am -1.7 -4.3 -1.8 99 0.0 SSE 2 6 1 3 1022.6 1022.7 0.0
22/04:30am -1.8 -4.8 -1.9 99 0.0 SSE 4 6 2 3 1022.6 1022.7 0.0
22/04:00am -1.8 -4.5 -2.1 98 0.0 SSE 2 6 1 3 1022.6 1022.7 0.0
22/03:30am -1.1 -3.3 -1.4 98 0.1 CALM 0 0 0 0 1022.6 1022.7 0.0
22/03:00am -0.6 -2.7 -0.9 98 0.1 CALM 0 0 0 0 1022.8 1022.9 0.0
22/02:30am -0.8 -4.1 -1.1 98 0.1 SW 6 9 3 5 1023.0 1023.1 0.0
22/02:00am -0.5 -2.6 -0.8 98 0.1 CALM 0 0 0 0 1023.3 1023.3 0.0
22/01:30am 0.5 -1.5 0.2 98 0.1 CALM 0 0 0 0 1023.6 1023.7 0.0
22/01:00am 0.6 -1.4 0.2 97 0.2 CALM 0 0 0 0 1023.8 1023.9 0.0
22/12:30am 0.9 -1.0 0.3 96 0.2 CALM 0 0 0 0 1024.0 1024.1 0.0
22/12:00am 1.1 -0.8 0.5 96 0.2 CALM 0 0 0 0 1024.1 1024.2 0.0
 
Date/Time
EST
Temp
°C
App
Temp
°C
Dew
Point
°C
Rel
Hum
%
Delta-T
°C
Wind Press
QNH
hPa
Press
MSL
hPa
Rain since
9am
mm
Dir  Spd
km/h
Gust
km/h
Spd
kts
Gust
kts
21/11:30pm 0.9 -1.1 -0.1 93 0.4 CALM 0 0 0 0 1024.1 1024.2 0.0
21/11:00pm 1.6 -1.5 0.4 92 0.5 NNE 6 9 3 5 1023.9 1024.0 0.0
21/10:30pm 2.5 -2.2 1.2 91 0.5 WNW 15 17 8 9 1023.8 1023.9 0.0
21/10:00pm 1.7 -1.9 0.7 93 0.4 NNE 9 9 5 5 1023.9 1024.0 0.0
21/09:30pm 2.6 -0.5 1.3 91 0.5 N 7 9 4 5 1023.8 1023.9 0.0
21/09:00pm 2.2 -0.5 0.4 88 0.7 W 4 9 2 5 1024.0 1024.1 0.0
21/08:30pm 3.9 2.2 1.9 87 0.8 CALM 0 0 0 0 1023.3 1023.3 0.0
21/08:00pm 3.2 0.1 0.4 82 1.1 W 6 9 3 5 1022.8 1022.9 0.0
21/07:30pm 4.7 0.5 1.9 82 1.2 W 13 15 7 8 1022.2 1022.3 0.0
21/07:00pm 6.5 1.7 2.6 76 1.7 W 17 22 9 12 1021.9 1021.9 0.0
21/06:30pm 7.7 3.0 3.4 74 1.9 W 17 20 9 11 1021.4 1021.5 0.0
21/06:00pm 6.0 1.2 -0.1 65 2.4 W 15 19 8 10 1020.8 1020.8 0.0
21/05:30pm 7.8 2.8 -1.2 53 3.6 SW 15 19 8 10 1020.3 1020.3 0.0
21/05:00pm 10.7 4.3 -1.7 42 5.0 SW 22 30 12 16 1020.2 1020.2 0.0
21/04:30pm 11.7 5.1 -0.4 43 5.1 SW 24 32 13 17 1019.7 1019.8 0.0
21/04:00pm 10.9 3.0 -1.2 43 5.0 SSW 30 37 16 20 1019.5 1019.6 0.0
21/03:30pm 11.9 5.3 -0.3 43 5.2 SSW 24 39 13 21 1019.2 1019.2 0.0
21/03:00pm 11.6 5.0 -0.2 44 5.0 SSW 24 30 13 16 1018.9 1018.9 0.0
21/02:30pm 12.4 6.4 0.8 45 5.1 S 22 30 12 16 1018.8 1018.8 0.0
21/02:00pm 11.8 4.3 0.9 47 4.7 SSW 30 37 16 20 1018.6 1018.6 0.0
21/01:38pm 12.5 4.8 0.0 42 5.4 SSW 30 48 16 26 1018.5 1018.5 0.0
21/01:30pm 13.3 6.0 2.2 47 5.0 SSW 30 43 16 23 1018.4 1018.4 0.0
21/01:11pm 12.4 4.4 0.5 44 5.2 SSW 32 54 17 29 1018.4 1018.4 0.0
21/01:00pm 12.1 3.2 0.8 46 4.9 SSW 37 48 20 26 1018.3 1018.3 0.0
21/12:30pm 12.1 4.3 -1.1 40 5.5 S 30 41 16 22 1017.8 1017.8 0.0
21/12:00pm 10.8 2.5 -0.6 45 4.7 S 33 48 18 26 1018.0 1018.0 0.0
21/11:30am 10.5 2.7 1.9 55 3.8 SSW 32 41 17 22 1018.0 1018.0 0.0
21/11:00am 9.4 1.7 -0.2 51 4.0 SSW 30 43 16 23 1017.8 1017.8 0.0
21/10:33am 9.3 2.1 0.7 55 3.6 SW 28 50 15 27 1017.8 1017.8 0.0
21/10:30am 10.2 3.6 2.3 58 3.5 SW 26 39 14 21 1017.7 1017.7 0.0
21/10:00am 7.9 0.7 0.4 59 3.1 SW 28 35 15 19 1017.8 1017.8 0.0
21/09:30am 8.1 1.8 1.3 62 2.9 SW 24 33 13 18 1017.7 1017.7 0.0
21/09:00am 6.3 0.8 0.8 68 2.3 WSW 19 28 10 15 1017.6 1017.6 1.6
21/08:30am 5.0 -1.3 1.8 80 1.3 W 24 28 13 15 1017.3 1017.3 1.6
21/08:00am 3.8 -2.2 1.0 82 1.1 W 22 28 12 15 1017.0 1017.0 1.6
21/07:30am 2.9 -3.1 0.8 86 0.8 W 22 32 12 17 1016.3 1016.3 1.6
21/07:00am 1.9 -4.6 0.1 88 0.7 W 24 32 13 17 1015.6 1015.6 1.6
21/06:30am 0.8 -3.3 -0.2 93 0.4 W 11 19 6 10 1015.4 1015.3 1.6
21/06:00am 0.2 -4.7 -0.6 94 0.3 W 15 20 8 11 1014.9 1014.8 1.6
21/05:30am 0.5 -4.1 -0.8 91 0.5 W 13 19 7 10 1014.4 1014.4 1.6
21/05:00am 0.7 -4.6 -0.6 91 0.5 W 17 22 9 12 1013.9 1013.8 1.6
21/04:30am 1.0 -4.9 -0.5 90 0.6 WNW 20 28 11 15 1013.5 1013.4 1.6
21/04:00am 0.8 -4.5 -0.5 91 0.5 W 17 20 9 11 1013.4 1013.3 1.6
21/03:30am 1.4 -4.2 -0.2 89 0.6 W 19 28 10 15 1013.3 1013.2 1.6
21/03:00am 2.4 -4.4 0.8 89 0.6 W 26 39 14 21 1012.8 1012.8 1.6
21/02:30am 3.0 -2.4 1.4 89 0.6 WSW 19 26 10 14 1012.9 1012.9 1.6
21/02:09am 3.2 -2.3 1.7 90 0.6 WSW 20 30 11 16 1012.7 1012.6 1.6
21/02:00am 3.3 -2.0 1.8 90 0.6 WSW 19 26 10 14 1012.6 1012.5 1.6
21/01:39am 4.2 -2.3 2.7 90 0.6 W 26 43 14 23 1012.5 1012.4 1.6
21/01:30am 4.1 -2.0 2.5 89 0.7 W 24 37 13 20 1012.7 1012.6 1.6
21/01:00am 4.2 -3.6 1.9 85 1.0 W 32 44 17 24 1012.7 1012.6 1.6
21/12:30am 4.1 -2.4 2.6 90 0.6 W 26 32 14 17 1012.9 1012.9 1.6
21/12:00am 4.5 -3.0 3.2 91 0.6 W 32 43 17 23 1012.9 1012.9 1.6
 
Date/Time
EST
Temp
°C
App
Temp
°C
Dew
Point
°C
Rel
Hum
%
Delta-T
°C
Wind Press
QNH
hPa
Press
MSL
hPa
Rain since
9am
mm
Dir  Spd
km/h
Gust
km/h
Spd
kts
Gust
kts
20/11:30pm 4.7 -3.0 3.4 91 0.6 WNW 33 43 18 23 1012.9 1012.9 1.6
20/11:00pm 4.7 -1.0 3.0 89 0.7 WNW 22 32 12 17 1013.1 1013.1 1.6
20/10:30pm 4.9 -2.3 2.9 87 0.9 W 30 41 16 22 1013.4 1013.3 1.6
20/10:04pm 4.8 -2.9 2.5 85 1.0 WNW 32 50 17 27 1013.4 1013.3 1.6
20/10:00pm 5.0 -3.3 2.4 83 1.1 WNW 35 46 19 25 1013.4 1013.3 1.6
20/09:30pm 4.8 -1.5 3.5 91 0.6 WNW 26 33 14 18 1013.7 1013.6 1.6
20/09:00pm 4.5 -0.5 3.5 93 0.4 WNW 19 26 10 14 1013.9 1013.8 1.6
20/08:31pm 4.3 0.3 3.1 92 0.5 WNW 13 19 7 10 1014.1 1014.0 1.6
20/08:30pm 4.2 0.2 3.0 92 0.5 WNW 13 17 7 9 1014.1 1014.0 1.6
20/08:00pm 4.4 -0.3 3.1 91 0.6 NW 17 22 9 12 1013.8 1013.7 1.6
20/07:58pm 4.2 -0.5 2.9 91 0.6 NW 17 20 9 11 1013.8 1013.7 1.6
20/07:30pm 4.3 -0.8 2.8 90 0.6 NW 19 28 10 15 1013.7 1013.6 1.6
20/07:00pm 4.7 -1.3 3.2 90 0.6 WNW 24 30 13 16 1013.6 1013.5 1.6
20/06:30pm 4.7 -1.4 3.0 89 0.7 WNW 24 33 13 18 1013.7 1013.6 1.6
20/06:00pm 4.9 -0.7 3.2 89 0.7 WNW 22 39 12 21 1013.8 1013.7 1.6
20/05:30pm 4.8 -1.2 3.5 91 0.6 WNW 24 32 13 17 1013.4 1013.3 1.6
20/05:00pm 4.7 -1.3 3.4 91 0.6 WNW 24 33 13 18 1013.4 1013.3 1.6
20/04:49pm 4.7 -3.0 3.4 91 0.6 W 33 54 18 29 1013.7 1013.6 1.2
20/04:42pm 4.8 -3.0 3.1 89 0.7 W 33 54 18 29 1013.7 1013.6 1.0
20/04:30pm 5.0 -2.1 3.7 91 0.6 W 30 41 16 22 1013.6 1013.5 0.8
20/04:16pm 5.1 -3.4 3.3 88 0.8 W 37 57 20 31 1013.6 1013.5 0.6
20/04:10pm 5.3 -3.2 3.3 87 0.9 WSW 37 57 20 31 1013.5 1013.4 0.4
20/04:03pm 5.7 -2.7 3.7 87 0.9 WSW 37 50 20 27 1013.1 1013.1 0.2
20/04:00pm 5.8 -3.0 3.8 87 0.9 WSW 39 54 21 29 1013.0 1013.0 0.2
20/03:50pm 6.3 -2.4 4.0 85 1.0 WSW 39 57 21 31 1012.7 1012.6 0.0
20/03:38pm 8.1 0.9 5.9 86 1.0 W 33 52 18 28 1012.2 1012.1 0.0
20/03:30pm 8.8 1.2 5.7 81 1.5 W 35 52 19 28 1012.1 1012.0 0.0
20/03:00pm 10.4 1.2 5.6 72 2.3 WSW 43 67 23 36 1011.3 1011.2 0.0
20/02:44pm 12.8 4.1 6.2 64 3.2 W 41 63 22 34 1011.0 1010.9 0.0
20/02:30pm 13.8 5.1 5.9 59 3.9 W 41 52 22 28 1010.3 1010.2 0.0
20/02:01pm 15.4 7.3 5.3 51 5.0 WNW 37 56 20 30 1010.4 1010.3 0.0
20/02:00pm 15.4 7.1 5.9 53 4.7 WNW 39 56 21 30 1010.4 1010.3 0.0
20/01:30pm 16.2 4.9 3.3 42 6.1 WNW 52 70 28 38 1010.5 1010.4 0.0
20/01:19pm 17.3 6.7 3.2 39 6.7 WNW 48 69 26 37 1010.6 1010.5 0.0
20/01:00pm 16.9 6.8 3.9 42 6.3 WNW 46 63 25 34 1010.7 1010.6 0.0
20/12:31pm 17.2 7.4 3.5 40 6.6 WNW 44 63 24 34 1011.2 1011.1 0.0
20/12:30pm 17.4 7.3 4.0 41 6.5 WNW 46 63 25 34 1011.2 1011.1 0.0
20/12:08pm 17.1 6.6 3.4 40 6.6 WNW 48 69 26 37 1011.6 1011.5 0.0
20/12:00pm 17.1 7.1 4.4 43 6.2 WNW 46 59 25 32 1011.6 1011.5 0.0
20/11:30am 16.6 5.2 2.6 39 6.6 WNW 52 67 28 36 1012.1 1012.0 0.0
20/11:00am 17.3 7.2 3.9 41 6.5 WNW 46 65 25 35 1012.3 1012.2 0.0
20/10:30am 16.4 5.2 1.7 37 6.8 WNW 50 76 27 41 1012.3 1012.2 0.0
20/10:06am 16.1 4.8 1.4 37 6.7 WNW 50 69 27 37 1012.4 1012.3 0.0
20/10:00am 16.3 5.5 2.0 38 6.6 WNW 48 63 26 34 1012.5 1012.4 0.0
20/09:32am 16.0 6.9 1.7 38 6.6 WNW 39 59 21 32 1012.6 1012.5 0.0
20/09:30am 16.4 8.3 3.5 42 6.2 WNW 35 52 19 28 1012.7 1012.6 0.0
20/09:24am 16.0 8.0 1.7 38 6.6 WNW 33 52 18 28 1012.8 1012.8 0.0
20/09:00am 14.9 7.0 2.4 43 5.8 WNW 33 44 18 24 1013.1 1013.1 0.0
20/08:39am 14.1 6.5 3.0 47 5.1 WNW 32 50 17 27 1013.5 1013.4 0.0
20/08:30am 13.6 5.8 2.8 48 5.0 NW 33 41 18 22 1013.5 1013.4 0.0
20/08:00am 12.6 5.4 3.0 52 4.4 WNW 30 39 16 21 1013.7 1013.6 0.0
20/07:30am 11.4 3.6 1.9 52 4.2 WNW 32 41 17 22 1013.7 1013.6 0.0
20/07:00am 10.7 3.5 1.0 51 4.2 WNW 28 39 15 21 1013.7 1013.6 0.0
20/06:30am 10.1 2.1 0.4 51 4.1 WNW 32 41 17 22 1013.6 1013.5 0.0
20/06:00am 10.4 1.0 0.2 49 4.3 WNW 39 54 21 29 1013.4 1013.3 0.0
20/05:30am 10.1 2.1 0.2 50 4.2 WNW 32 43 17 23 1013.4 1013.3 0.0
20/05:00am 10.1 2.1 0.2 50 4.2 WNW 32 43 17 23 1013.4 1013.3 0.0
20/04:30am 10.1 2.1 0.4 51 4.1 WNW 32 43 17 23 1013.4 1013.3 0.0
20/04:00am 10.7 2.6 0.7 50 4.3 WNW 33 43 18 23 1013.4 1013.3 0.0
20/03:30am 10.5 2.6 1.1 52 4.1 NW 32 44 17 24 1013.6 1013.5 0.0
20/03:00am 10.3 3.2 1.2 53 3.9 NW 28 39 15 21 1013.9 1013.8 0.0
20/02:30am 10.0 3.2 1.1 54 3.8 NW 26 35 14 19 1014.3 1014.3 0.0
20/02:00am 9.8 3.4 1.2 55 3.7 NW 24 30 13 16 1014.9 1014.8 0.0
20/01:30am 8.9 3.9 1.1 58 3.3 NW 17 24 9 13 1015.6 1015.6 0.0
20/01:00am 8.2 4.4 1.6 63 2.8 NW 11 15 6 8 1016.2 1016.2 0.0
20/12:30am 6.3 2.0 1.2 70 2.1 N 13 15 7 8 1016.7 1016.6 0.0
20/12:00am 7.2 3.7 1.3 66 2.5 N 9 13 5 7 1017.0 1017.0 0.0
 
Date/Time
EST
Temp
°C
App
Temp
°C
Dew
Point
°C
Rel
Hum
%
Delta-T
°C
Wind Press
QNH
hPa
Press
MSL
hPa
Rain since
9am
mm
Dir  Spd
km/h
Gust
km/h
Spd
kts
Gust
kts
19/11:30pm 7.7 3.5 1.5 65 2.6 NNW 13 17 7 9 1017.3 1017.3 0.0
19/11:00pm 6.9 3.4 1.4 68 2.3 NNW 9 13 5 7 1017.7 1017.7 0.0
19/10:30pm 7.4 3.3 2.3 70 2.2 NW 13 15 7 8 1018.0 1018.0 0.0
19/10:00pm 8.0 3.2 2.7 69 2.3 NW 17 20 9 11 1018.3 1018.3 0.0
19/09:30pm 8.8 3.8 3.4 69 2.4 NW 19 24 10 13 1018.5 1018.5 0.0
19/09:00pm 8.2 3.6 3.5 72 2.1 NW 17 20 9 11 1018.7 1018.7 0.0
19/08:30pm 8.1 3.4 3.4 72 2.1 NW 17 19 9 10 1019.0 1019.0 0.0
19/08:00pm 8.2 3.6 3.5 72 2.1 NW 17 20 9 11 1019.0 1019.0 0.0
19/07:30pm 8.4 3.7 3.1 69 2.3 NW 17 20 9 11 1019.1 1019.1 0.0
19/07:00pm 9.5 4.2 3.0 64 2.9 WNW 20 26 11 14 1018.9 1018.9 0.0
19/06:30pm 10.1 4.4 2.9 61 3.2 WNW 22 28 12 15 1018.7 1018.7 0.0
19/06:00pm 11.0 4.9 2.8 57 3.7 WNW 24 35 13 19 1018.8 1018.8 0.0
19/05:30pm 12.1 4.3 2.6 52 4.3 WNW 33 46 18 25 1018.5 1018.5 0.0
19/05:00pm 12.9 4.4 3.3 52 4.4 WNW 37 52 20 28 1018.3 1018.3 0.0
19/04:32pm 13.4 4.9 2.9 49 4.8 WNW 37 56 20 30 1018.0 1018.0 0.0
19/04:30pm 13.4 4.5 2.9 49 4.8 WNW 39 54 21 29 1018.0 1018.0 0.0
19/04:02pm 13.9 5.1 3.4 49 4.9 WNW 39 57 21 31 1018.3 1018.3 0.0
19/04:00pm 13.8 4.5 3.0 48 5.0 WNW 41 57 22 31 1018.3 1018.3 0.0
19/03:30pm 13.9 4.4 1.9 44 5.4 WNW 41 67 22 36 1018.4 1018.4 0.0
19/03:00pm 14.4 4.6 2.3 44 5.5 WNW 43 57 23 31 1018.6 1018.6 0.0
19/02:37pm 14.0 3.5 1.3 42 5.7 WNW 46 65 25 35 1018.8 1018.8 0.0
19/02:30pm 14.5 4.5 2.1 43 5.7 WNW 44 57 24 31 1018.9 1018.9 0.0
19/02:00pm 15.0 5.7 3.2 45 5.5 W 41 57 22 31 1019.2 1019.2 0.0
19/01:49pm 14.8 5.3 1.7 41 5.9 WNW 41 61 22 33 1019.2 1019.2 0.0
19/01:30pm 14.3 4.5 2.2 44 5.5 WNW 43 57 23 31 1019.7 1019.8 0.0
19/01:01pm 14.4 6.0 3.5 48 5.1 WNW 37 56 20 30 1020.2 1020.2 0.0
19/01:00pm 14.0 5.0 2.3 45 5.3 WNW 39 56 21 30 1020.2 1020.2 0.0
19/12:50pm 14.4 5.8 2.6 45 5.4 W 37 56 20 30 1020.3 1020.3 0.0
19/12:30pm 14.8 6.3 3.3 46 5.4 WNW 37 54 20 29 1020.7 1020.7 0.0
19/12:03pm 14.3 6.3 1.9 43 5.6 WNW 33 52 18 28 1021.1 1021.2 0.0
19/12:00pm 14.9 7.4 4.3 49 5.1 WNW 33 46 18 25 1021.1 1021.2 0.0
19/11:30am 14.1 5.2 3.0 47 5.1 WNW 39 56 21 30 1021.7 1021.7 0.0
19/11:01am 14.2 6.7 3.4 48 5.1 WNW 32 52 17 28 1022.3 1022.4 0.0
19/11:00am 14.0 6.6 3.8 50 4.8 WNW 32 46 17 25 1022.2 1022.3 0.0
19/10:30am 12.4 5.8 2.0 49 4.7 WNW 26 41 14 22 1022.6 1022.7 0.0
19/10:20am 12.8 5.8 2.1 48 4.8 WNW 28 46 15 25 1022.7 1022.8 0.0
19/10:00am 12.7 6.3 3.1 52 4.4 NW 26 35 14 19 1022.9 1023.0 0.0

Other formats

Comma delimited format used in spreadsheet applications
http://www.bom.gov.au/fwo/IDN60801/IDN60801.95716.axf

JavaScript Object Notation format (JSON) in row-major order
http://www.bom.gov.au/fwo/IDN60801/IDN60801.95716.json

Data quality

Most of these data are generated automatically and are frequently updated. Quality checks on data are not normally performed. It is possible for incorrect values to appear. Refer to information at About Latest Weather Observations and please check the disclaimer before using these data.